createdAt,value
2023-11-24T00:00:33.310Z,6.14
2023-11-24T00:03:00.519Z,6.10
2023-11-24T00:05:27.746Z,6.21
2023-11-24T00:07:54.618Z,6.14
2023-11-24T00:10:21.600Z,6.12
2023-11-24T00:12:48.565Z,6.09
2023-11-24T00:15:15.397Z,6.00
2023-11-24T00:17:42.229Z,5.98
2023-11-24T00:20:09.546Z,6.05
2023-11-24T00:22:36.422Z,5.95
2023-11-24T00:25:03.753Z,5.96
2023-11-24T00:27:30.638Z,6.09
2023-11-24T00:29:57.601Z,6.22
2023-11-24T00:32:24.694Z,6.20
2023-11-24T00:34:51.866Z,6.07
2023-11-24T00:37:18.599Z,6.06
2023-11-24T00:39:51.301Z,6.01
2023-11-24T00:42:18.431Z,6.01
2023-11-24T00:44:45.339Z,6.01
2023-11-24T00:47:12.194Z,5.96
2023-11-24T00:49:40.479Z,5.89
2023-11-24T00:52:07.319Z,5.92
2023-11-24T00:54:34.539Z,5.97
2023-11-24T00:57:01.462Z,5.98
2023-11-24T00:59:28.258Z,6.04
2023-11-24T01:01:55.037Z,5.97
2023-11-24T01:04:21.892Z,5.99
2023-11-24T01:06:49.236Z,5.94
2023-11-24T01:09:17.037Z,5.83
2023-11-24T01:11:43.906Z,5.82
2023-11-24T01:14:10.641Z,5.79
2023-11-24T01:16:37.499Z,5.77
2023-11-24T01:19:04.585Z,5.70
2023-11-24T01:21:32.320Z,5.86
2023-11-24T01:24:03.440Z,5.96
2023-11-24T01:26:31.002Z,6.01
2023-11-24T01:28:59.981Z,5.97
2023-11-24T01:31:26.867Z,5.99
2023-11-24T01:33:53.682Z,5.98
2023-11-24T01:36:20.757Z,5.99
2023-11-24T01:38:47.661Z,6.00
2023-11-24T01:41:14.491Z,5.86
2023-11-24T01:43:42.817Z,5.78
2023-11-24T01:46:09.692Z,5.79
2023-11-24T01:48:37.429Z,5.77
2023-11-24T01:51:08.016Z,5.68
2023-11-24T01:53:35.236Z,5.67
2023-11-24T01:56:03.596Z,5.67
2023-11-24T01:58:31.206Z,5.65
2023-11-24T02:00:58.219Z,5.56
2023-11-24T02:03:26.096Z,5.48
2023-11-24T02:05:53.408Z,5.36
2023-11-24T02:08:20.478Z,5.28
2023-11-24T02:10:47.396Z,5.28
2023-11-24T02:13:14.966Z,5.26
2023-11-24T02:15:41.785Z,5.27
2023-11-24T02:18:08.627Z,5.25
2023-11-24T02:20:35.852Z,5.28
2023-11-24T02:23:02.740Z,5.34
2023-11-24T02:25:29.529Z,5.41
2023-11-24T02:27:56.464Z,5.41
2023-11-24T02:30:23.329Z,5.48
2023-11-24T02:32:50.318Z,5.63
2023-11-24T02:35:17.299Z,5.65
2023-11-24T02:37:44.076Z,5.66
2023-11-24T02:40:11.786Z,5.64
2023-11-24T02:42:38.813Z,5.63
2023-11-24T02:45:07.179Z,5.45
2023-11-24T02:47:34.360Z,5.41
2023-11-24T02:50:01.203Z,5.42
2023-11-24T02:52:27.958Z,5.45
2023-11-24T02:54:54.710Z,5.47
2023-11-24T02:57:21.516Z,5.51
2023-11-24T02:59:48.333Z,5.57
2023-11-24T03:02:15.244Z,5.66
2023-11-24T03:04:42.124Z,5.63
2023-11-24T03:07:10.415Z,5.52
2023-11-24T03:09:37.235Z,5.52
2023-11-24T03:12:04.432Z,5.53
2023-11-24T03:14:31.682Z,5.46
2023-11-24T03:16:58.466Z,5.49
2023-11-24T03:19:25.379Z,5.56
2023-11-24T03:21:52.559Z,5.47
2023-11-24T03:24:19.884Z,5.43
2023-11-24T03:26:47.142Z,5.46
2023-11-24T03:29:13.936Z,5.51
2023-11-24T03:31:41.178Z,5.42
2023-11-24T03:34:08.270Z,5.54
2023-11-24T03:36:35.177Z,5.47
2023-11-24T03:39:02.017Z,5.49
2023-11-24T03:41:28.780Z,5.46
2023-11-24T03:43:55.582Z,5.55
2023-11-24T03:46:22.447Z,5.51
2023-11-24T03:48:49.213Z,5.51
2023-11-24T03:51:19.909Z,5.47
2023-11-24T03:53:46.909Z,5.53
2023-11-24T03:56:17.482Z,5.46
2023-11-24T03:58:44.495Z,5.43
2023-11-24T04:01:17.131Z,5.47
2023-11-24T04:03:45.709Z,5.39
2023-11-24T04:06:12.647Z,5.36
2023-11-24T04:08:40.228Z,5.31
2023-11-24T04:11:07.182Z,5.36
2023-11-24T04:13:33.957Z,5.34
2023-11-24T04:16:00.886Z,5.47
2023-11-24T04:18:28.318Z,5.43
2023-11-24T04:20:55.175Z,5.42
2023-11-24T04:23:22.255Z,5.37
2023-11-24T04:25:49.204Z,5.35
2023-11-24T04:28:16.112Z,5.36
2023-11-24T04:30:43.339Z,5.40
2023-11-24T04:33:10.177Z,5.46
2023-11-24T04:35:36.893Z,5.46
2023-11-24T04:38:03.729Z,5.35
2023-11-24T04:40:30.468Z,5.31
2023-11-24T04:42:57.362Z,5.30
2023-11-24T04:45:24.138Z,5.30
2023-11-24T04:47:52.331Z,5.32
2023-11-24T04:50:19.273Z,5.25
2023-11-24T04:52:46.059Z,5.21
2023-11-24T04:55:13.910Z,5.27
2023-11-24T04:57:40.920Z,5.24
2023-11-24T05:00:09.072Z,5.11
2023-11-24T05:02:36.419Z,5.11
2023-11-24T05:05:03.430Z,5.04
2023-11-24T05:07:30.292Z,4.98
2023-11-24T05:09:57.139Z,5.13
2023-11-24T05:12:24.417Z,5.05
2023-11-24T05:14:53.157Z,5.03
2023-11-24T05:17:20.963Z,5.06
2023-11-24T05:19:47.870Z,5.09
2023-11-24T05:22:14.923Z,5.10
2023-11-24T05:24:43.195Z,5.16
2023-11-24T05:27:10.287Z,5.19
2023-11-24T05:29:37.044Z,5.13
2023-11-24T05:32:04.287Z,5.12
2023-11-24T05:34:31.138Z,5.11
2023-11-24T05:37:04.194Z,5.18
2023-11-24T05:39:31.196Z,5.15
2023-11-24T05:41:58.096Z,5.23
2023-11-24T05:44:25.201Z,5.13
2023-11-24T05:46:52.018Z,5.06
2023-11-24T05:49:19.710Z,5.13
2023-11-24T05:51:46.504Z,5.00
2023-11-24T05:54:13.712Z,5.01
2023-11-24T05:56:40.840Z,5.00
2023-11-24T05:59:07.873Z,5.04
2023-11-24T06:01:34.902Z,5.04
2023-11-24T06:04:01.943Z,5.02
2023-11-24T06:06:28.920Z,4.98
2023-11-24T06:08:55.925Z,4.96
2023-11-24T06:11:22.729Z,4.91
2023-11-24T06:13:49.612Z,4.94
2023-11-24T06:16:16.340Z,4.97
2023-11-24T06:18:43.153Z,4.93
2023-11-24T06:21:13.330Z,4.86
2023-11-24T06:23:41.098Z,4.92
2023-11-24T06:26:11.033Z,4.84
2023-11-24T06:28:37.808Z,4.83
2023-11-24T06:31:06.061Z,4.95
2023-11-24T06:33:33.084Z,4.97
2023-11-24T06:36:01.609Z,4.93
2023-11-24T06:38:28.388Z,5.03
2023-11-24T06:40:57.385Z,4.98
2023-11-24T06:43:24.243Z,5.06
2023-11-24T06:45:51.091Z,4.97
2023-11-24T06:48:17.907Z,4.93
2023-11-24T06:50:44.727Z,4.89
2023-11-24T06:53:12.970Z,4.90
2023-11-24T06:55:39.769Z,4.97
2023-11-24T06:58:08.584Z,4.89
2023-11-24T07:00:36.245Z,4.86
2023-11-24T07:03:03.366Z,4.91
2023-11-24T07:05:30.178Z,4.90
2023-11-24T07:07:57.008Z,4.84
2023-11-24T07:10:23.993Z,4.80
2023-11-24T07:12:50.981Z,4.67
2023-11-24T07:15:18.328Z,4.73
2023-11-24T07:17:45.642Z,4.65
2023-11-24T07:20:13.041Z,4.61
2023-11-24T07:22:41.325Z,4.63
2023-11-24T07:25:08.731Z,4.67
2023-11-24T07:27:38.678Z,4.75
2023-11-24T07:30:10.960Z,4.76
2023-11-24T07:32:41.325Z,4.83
2023-11-24T07:35:10.472Z,4.84
2023-11-24T07:37:37.810Z,4.83
2023-11-24T07:40:16.276Z,4.87
2023-11-24T07:42:45.801Z,4.96
2023-11-24T07:45:13.472Z,4.89
2023-11-24T07:47:41.724Z,4.79
2023-11-24T07:50:09.452Z,4.88
2023-11-24T07:52:38.107Z,4.78
2023-11-24T07:55:06.680Z,4.72
2023-11-24T07:57:38.256Z,4.67
2023-11-24T08:00:11.885Z,4.79
2023-11-24T08:02:38.792Z,4.71
2023-11-24T08:05:06.214Z,4.77
2023-11-24T08:07:34.448Z,4.78
2023-11-24T08:10:01.495Z,4.90
2023-11-24T08:12:28.320Z,5.00
2023-11-24T08:14:56.668Z,5.16
2023-11-24T08:17:23.530Z,5.12
2023-11-24T08:19:50.439Z,5.04
2023-11-24T08:22:17.315Z,5.18
2023-11-24T08:24:44.139Z,5.05
2023-11-24T08:27:11.275Z,5.16
2023-11-24T08:29:38.141Z,5.21
2023-11-24T08:32:05.586Z,5.43
2023-11-24T08:34:32.824Z,5.45
2023-11-24T08:37:03.444Z,5.42
2023-11-24T08:39:30.470Z,5.49
2023-11-24T08:41:57.293Z,5.51
2023-11-24T08:44:25.828Z,5.36
2023-11-24T08:46:55.609Z,5.23
2023-11-24T08:49:23.350Z,5.26
2023-11-24T08:51:50.331Z,5.30
2023-11-24T08:54:17.169Z,5.25
2023-11-24T08:56:44.471Z,5.33
2023-11-24T08:59:12.521Z,5.55
2023-11-24T09:01:39.412Z,5.69
2023-11-24T09:04:06.748Z,5.90
2023-11-24T09:06:36.500Z,5.66
2023-11-24T09:09:03.617Z,5.56
2023-11-24T09:11:30.698Z,4.93
2023-11-24T09:13:57.649Z,4.59
2023-11-24T09:16:24.546Z,4.45
2023-11-24T09:18:51.532Z,4.22
2023-11-24T09:21:19.016Z,4.06
2023-11-24T09:23:46.765Z,3.86
2023-11-24T09:26:13.877Z,3.78
2023-11-24T09:28:40.909Z,3.80
2023-11-24T09:31:10.782Z,3.80
2023-11-24T09:33:41.243Z,3.94
2023-11-24T09:36:09.270Z,4.00
2023-11-24T09:38:36.173Z,4.12
2023-11-24T09:41:13.072Z,4.22
2023-11-24T09:43:40.133Z,4.29
2023-11-24T09:46:11.921Z,4.35
2023-11-24T09:48:43.910Z,5.20
2023-11-24T09:51:13.391Z,5.17
2023-11-24T09:53:42.276Z,4.81
2023-11-24T09:56:09.292Z,5.01
2023-11-24T09:58:35.980Z,4.77
2023-11-24T10:01:08.606Z,4.96
2023-11-24T10:03:42.306Z,5.08
2023-11-24T10:06:20.388Z,4.93
2023-11-24T10:08:47.879Z,5.17
2023-11-24T10:11:29.171Z,5.18
2023-11-24T10:13:57.699Z,5.16
2023-11-24T10:16:24.857Z,5.16
2023-11-24T10:18:56.776Z,5.12
2023-11-24T10:21:30.271Z,5.01
2023-11-24T10:23:59.902Z,4.96
2023-11-24T10:26:27.292Z,4.76
2023-11-24T10:28:57.042Z,4.67
2023-11-24T10:31:24.270Z,4.58
2023-11-24T10:33:52.525Z,4.58
2023-11-24T10:36:24.505Z,4.58
2023-11-24T10:39:01.733Z,4.53
2023-11-24T10:41:30.504Z,4.59
2023-11-24T10:43:58.077Z,4.56
2023-11-24T10:46:30.282Z,4.61
2023-11-24T10:49:09.235Z,4.64
2023-11-24T10:51:46.795Z,4.88
2023-11-24T10:54:24.457Z,5.08
2023-11-24T10:56:52.255Z,5.06
2023-11-24T10:59:21.011Z,5.06
2023-11-24T11:01:48.163Z,4.93
2023-11-24T11:04:15.529Z,4.89
2023-11-24T11:07:01.253Z,4.96
2023-11-24T11:09:41.739Z,4.90
2023-11-24T11:12:20.214Z,4.90
2023-11-24T11:14:48.130Z,4.82
2023-11-24T11:17:21.436Z,4.80
2023-11-24T11:20:13.223Z,5.00
2023-11-24T11:22:41.790Z,4.80
2023-11-24T11:25:14.994Z,4.95
2023-11-24T11:27:44.590Z,5.06
2023-11-24T11:30:28.181Z,5.04
2023-11-24T11:33:16.588Z,5.13
2023-11-24T11:35:44.100Z,5.13
2023-11-24T11:38:14.811Z,5.08
2023-11-24T11:40:49.072Z,5.11
2023-11-24T11:43:17.058Z,5.07
2023-11-24T11:45:51.446Z,5.13
2023-11-24T11:48:21.135Z,5.30
2023-11-24T11:51:00.026Z,5.26
2023-11-24T11:53:30.332Z,5.26
2023-11-24T11:55:57.775Z,5.32
2023-11-24T11:58:26.214Z,5.26
2023-11-24T12:00:54.862Z,5.41
2023-11-24T12:03:25.578Z,5.48
2023-11-24T12:05:52.749Z,5.60
2023-11-24T12:08:20.323Z,5.39
2023-11-24T12:10:47.892Z,5.46
2023-11-24T12:13:15.016Z,5.41
2023-11-24T12:15:45.433Z,5.46
2023-11-24T12:18:16.484Z,5.36
2023-11-24T12:20:45.380Z,5.28
2023-11-24T12:23:14.461Z,5.27
2023-11-24T12:25:42.755Z,5.13
2023-11-24T12:28:10.961Z,5.16
2023-11-24T12:30:45.565Z,5.23
2023-11-24T12:33:15.564Z,5.12
2023-11-24T12:35:50.162Z,5.27
2023-11-24T12:38:17.122Z,5.25
2023-11-24T12:40:44.918Z,5.31
2023-11-24T12:43:16.547Z,5.38
2023-11-24T12:45:43.843Z,5.37
2023-11-24T12:48:41.452Z,5.40
2023-11-24T12:51:08.317Z,5.45
2023-11-24T12:53:35.229Z,5.60
2023-11-24T12:56:02.150Z,5.61
2023-11-24T12:58:30.284Z,5.62
2023-11-24T13:00:58.450Z,5.47
2023-11-24T13:03:25.357Z,5.48
2023-11-24T13:05:52.597Z,5.49
2023-11-24T13:08:24.155Z,5.33
2023-11-24T13:10:54.890Z,5.28
2023-11-24T13:13:21.918Z,5.17
2023-11-24T13:15:48.950Z,5.10
2023-11-24T13:18:15.787Z,5.17
2023-11-24T13:20:42.634Z,5.07
2023-11-24T13:23:10.530Z,5.09
2023-11-24T13:25:38.222Z,4.95
2023-11-24T13:28:06.724Z,5.04
2023-11-24T13:30:34.248Z,4.82
2023-11-24T13:33:01.131Z,4.61
2023-11-24T13:35:27.950Z,4.33
2023-11-24T13:37:54.708Z,4.21
2023-11-24T13:40:27.021Z,4.10
2023-11-24T13:42:54.831Z,4.08
2023-11-24T13:45:21.971Z,4.01
2023-11-24T13:47:49.208Z,3.90
2023-11-24T13:50:19.690Z,3.94
2023-11-24T13:52:57.247Z,3.98
2023-11-24T13:55:24.775Z,4.00
2023-11-24T13:57:51.681Z,3.92
2023-11-24T14:00:18.770Z,3.92
2023-11-24T14:02:46.559Z,3.83
2023-11-24T14:05:14.605Z,3.69
2023-11-24T14:07:45.470Z,3.43
2023-11-24T14:10:18.230Z,3.26
2023-11-24T14:12:47.507Z,2.91
2023-11-24T14:15:15.108Z,2.89
2023-11-24T14:17:42.690Z,2.62
2023-11-24T14:20:11.163Z,2.54
2023-11-24T14:22:38.356Z,2.38
2023-11-24T14:25:07.642Z,2.43
2023-11-24T14:27:35.331Z,2.38
2023-11-24T14:30:04.141Z,2.41
2023-11-24T14:32:30.960Z,2.34
2023-11-24T14:34:57.713Z,2.38
2023-11-24T14:37:24.945Z,2.42
2023-11-24T14:39:51.731Z,2.50
2023-11-24T14:42:19.613Z,2.47
2023-11-24T14:44:46.900Z,2.35
2023-11-24T14:47:13.775Z,2.07
2023-11-24T14:49:41.022Z,1.99
2023-11-24T14:52:08.580Z,1.96
2023-11-24T14:54:35.536Z,1.96
2023-11-24T14:57:02.355Z,1.87
2023-11-24T14:59:30.608Z,1.96
2023-11-24T15:02:02.971Z,2.00
2023-11-24T15:04:32.206Z,2.03
2023-11-24T15:07:01.961Z,2.02
2023-11-24T15:09:28.932Z,2.40
2023-11-24T15:11:55.844Z,2.13
2023-11-24T15:14:37.498Z,2.08
2023-11-24T15:17:06.334Z,2.14
2023-11-24T15:19:35.316Z,2.14
2023-11-24T15:22:19.642Z,2.20
2023-11-24T15:24:47.771Z,2.17
2023-11-24T15:27:14.827Z,2.32
2023-11-24T15:29:41.919Z,2.24
2023-11-24T15:32:10.407Z,2.25
2023-11-24T15:34:37.411Z,2.29
2023-11-24T15:37:04.853Z,2.34
2023-11-24T15:39:54.809Z,2.28
2023-11-24T15:42:21.799Z,2.40
2023-11-24T15:44:49.429Z,2.34
2023-11-24T15:47:16.618Z,2.31
2023-11-24T15:49:43.862Z,2.37
2023-11-24T15:52:15.188Z,2.29
2023-11-24T15:54:43.121Z,2.16
2023-11-24T15:57:15.120Z,2.13
2023-11-24T15:59:44.508Z,2.21
2023-11-24T16:02:15.148Z,2.37
2023-11-24T16:04:57.398Z,2.35
2023-11-24T16:07:36.690Z,2.34
2023-11-24T16:10:15.946Z,2.28
2023-11-24T16:12:49.768Z,2.26
2023-11-24T16:15:17.761Z,2.30
2023-11-24T16:17:46.855Z,2.17
2023-11-24T16:20:13.856Z,2.16
2023-11-24T16:22:41.819Z,2.19
2023-11-24T16:25:12.624Z,2.17
2023-11-24T16:27:42.100Z,2.23
2023-11-24T16:30:10.331Z,2.13
2023-11-24T16:32:37.215Z,2.15
2023-11-24T16:35:09.546Z,2.16
2023-11-24T16:37:36.799Z,2.26
2023-11-24T16:40:05.369Z,2.21
2023-11-24T16:42:32.275Z,2.07
2023-11-24T16:44:59.115Z,2.16
2023-11-24T16:47:27.186Z,2.13
2023-11-24T16:49:54.046Z,2.19
2023-11-24T16:52:20.903Z,2.31
2023-11-24T16:54:47.826Z,2.49
2023-11-24T16:57:15.060Z,2.49
2023-11-24T16:59:43.297Z,2.50
2023-11-24T17:02:10.223Z,2.78
2023-11-24T17:04:37.262Z,2.59
2023-11-24T17:07:04.519Z,2.57
2023-11-24T17:09:31.278Z,2.84
2023-11-24T17:11:58.191Z,2.69
2023-11-24T17:14:25.276Z,2.56
2023-11-24T17:16:52.510Z,2.99
2023-11-24T17:19:19.691Z,2.99
2023-11-24T17:21:46.659Z,2.54
2023-11-24T17:24:13.565Z,2.52
2023-11-24T17:26:41.575Z,2.49
2023-11-24T17:29:13.947Z,2.46
2023-11-24T17:31:43.426Z,2.55
2023-11-24T17:34:13.248Z,2.74
2023-11-24T17:36:40.270Z,2.84
2023-11-24T17:39:10.046Z,2.82
2023-11-24T17:41:37.372Z,2.85
2023-11-24T17:44:05.596Z,2.88
2023-11-24T17:46:34.395Z,2.86
2023-11-24T17:49:01.761Z,2.86
2023-11-24T17:51:29.629Z,2.83
2023-11-24T17:53:56.338Z,2.84
2023-11-24T17:56:24.343Z,2.96
2023-11-24T17:58:52.983Z,2.87
2023-11-24T18:01:20.593Z,2.87
2023-11-24T18:03:47.526Z,2.88
2023-11-24T18:06:14.450Z,2.95
2023-11-24T18:08:41.193Z,2.96
2023-11-24T18:11:08.064Z,3.06
2023-11-24T18:13:34.893Z,2.99
2023-11-24T18:16:01.939Z,3.09
2023-11-24T18:18:28.751Z,3.18
2023-11-24T18:20:55.562Z,3.14
2023-11-24T18:23:22.628Z,3.18
2023-11-24T18:25:51.384Z,3.30
2023-11-24T18:28:21.149Z,3.27
2023-11-24T18:30:48.254Z,3.29
2023-11-24T18:33:15.409Z,3.29
2023-11-24T18:35:42.394Z,3.36
2023-11-24T18:38:10.115Z,3.36
2023-11-24T18:40:37.156Z,3.43
2023-11-24T18:43:05.598Z,3.41
2023-11-24T18:45:35.097Z,3.45
2023-11-24T18:48:02.168Z,3.42
2023-11-24T18:50:31.103Z,3.42
2023-11-24T18:52:58.140Z,3.42
2023-11-24T18:55:25.059Z,3.54
2023-11-24T18:57:53.085Z,3.46
2023-11-24T19:00:20.724Z,3.54
2023-11-24T19:02:49.209Z,3.47
2023-11-24T19:05:17.128Z,3.48
2023-11-24T19:07:44.281Z,3.43
2023-11-24T19:10:18.415Z,3.42
2023-11-24T19:12:46.688Z,3.40
2023-11-24T19:15:13.532Z,3.36
2023-11-24T19:17:40.537Z,3.34
2023-11-24T19:20:08.726Z,3.29
2023-11-24T19:22:36.395Z,3.28
2023-11-24T19:25:03.538Z,3.26
2023-11-24T19:27:30.380Z,3.29
2023-11-24T19:29:57.330Z,3.20
2023-11-24T19:32:25.872Z,3.21
2023-11-24T19:34:53.949Z,3.29
2023-11-24T19:37:20.947Z,3.33
2023-11-24T19:39:49.468Z,3.34
2023-11-24T19:42:19.155Z,3.30
2023-11-24T19:44:48.021Z,3.27
2023-11-24T19:47:15.067Z,3.31
2023-11-24T19:49:42.810Z,3.36
2023-11-24T19:52:10.563Z,3.29
2023-11-24T19:54:38.792Z,3.40
2023-11-24T19:57:05.970Z,3.38
2023-11-24T19:59:32.776Z,3.40
2023-11-24T20:02:00.062Z,3.43
2023-11-24T20:04:28.491Z,3.32
2023-11-24T20:06:55.426Z,3.29
2023-11-24T20:09:23.630Z,3.35
2023-11-24T20:11:53.035Z,3.38
2023-11-24T20:14:20.150Z,3.40
2023-11-24T20:16:48.681Z,3.35
2023-11-24T20:19:15.934Z,3.32
2023-11-24T20:21:43.010Z,3.33
2023-11-24T20:24:11.368Z,3.39
2023-11-24T20:26:41.209Z,3.36
2023-11-24T20:29:09.132Z,3.31
2023-11-24T20:31:36.465Z,3.27
2023-11-24T20:34:03.659Z,3.25
2023-11-24T20:36:30.665Z,3.18
2023-11-24T20:39:00.267Z,3.18
2023-11-24T20:41:27.230Z,3.19
2023-11-24T20:43:57.430Z,3.14
2023-11-24T20:46:24.851Z,3.28
2023-11-24T20:48:51.798Z,3.25
2023-11-24T20:51:18.748Z,3.04
2023-11-24T20:53:45.663Z,3.13
2023-11-24T20:56:12.609Z,3.13
2023-11-24T20:58:39.776Z,3.18
2023-11-24T21:01:07.227Z,3.14
2023-11-24T21:03:34.660Z,3.03
2023-11-24T21:06:01.866Z,2.96
2023-11-24T21:08:28.702Z,2.98
2023-11-24T21:10:56.160Z,2.98
2023-11-24T21:13:23.699Z,3.00
2023-11-24T21:15:51.623Z,3.09
2023-11-24T21:18:19.049Z,2.93
2023-11-24T21:20:48.593Z,2.86
2023-11-24T21:23:16.058Z,2.85
2023-11-24T21:25:43.285Z,2.78
2023-11-24T21:28:11.679Z,2.82
2023-11-24T21:30:40.692Z,2.76
2023-11-24T21:33:08.328Z,2.74
2023-11-24T21:35:35.688Z,2.79
2023-11-24T21:38:04.989Z,2.83
2023-11-24T21:40:32.630Z,2.78
2023-11-24T21:42:59.597Z,2.93
2023-11-24T21:45:26.491Z,2.94
2023-11-24T21:47:55.473Z,2.91
2023-11-24T21:50:23.433Z,2.88
2023-11-24T21:52:50.492Z,2.82
2023-11-24T21:55:17.574Z,2.76
2023-11-24T21:57:44.513Z,2.83
2023-11-24T22:00:17.598Z,2.73
2023-11-24T22:02:47.790Z,2.69
2023-11-24T22:05:14.773Z,2.78
2023-11-24T22:07:42.306Z,2.76
2023-11-24T22:10:09.599Z,2.75
2023-11-24T22:12:37.790Z,2.73
2023-11-24T22:15:06.099Z,2.74
2023-11-24T22:17:34.100Z,2.79
2023-11-24T22:20:03.187Z,2.87
2023-11-24T22:22:32.939Z,2.79
2023-11-24T22:24:59.977Z,2.81
2023-11-24T22:27:26.737Z,2.81
2023-11-24T22:30:01.453Z,2.90
2023-11-24T22:32:32.753Z,2.85
2023-11-24T22:35:02.613Z,2.97
2023-11-24T22:37:29.453Z,3.04
2023-11-24T22:39:56.348Z,3.12
2023-11-24T22:42:23.490Z,3.09
2023-11-24T22:44:51.209Z,3.17
2023-11-24T22:47:18.839Z,3.18
2023-11-24T22:49:45.850Z,3.23
2023-11-24T22:52:12.647Z,3.23
2023-11-24T22:54:40.287Z,3.26
2023-11-24T22:57:07.718Z,3.18
2023-11-24T22:59:34.909Z,3.29
2023-11-24T23:02:01.896Z,3.24
2023-11-24T23:04:28.834Z,3.31
2023-11-24T23:06:55.725Z,3.28
2023-11-24T23:09:22.950Z,3.31
2023-11-24T23:11:50.220Z,3.34
2023-11-24T23:14:17.190Z,3.30
2023-11-24T23:16:45.212Z,3.34
2023-11-24T23:19:13.041Z,3.32
2023-11-24T23:21:41.936Z,3.40
2023-11-24T23:24:11.901Z,3.34
2023-11-24T23:26:39.748Z,3.36
2023-11-24T23:29:07.895Z,3.43
2023-11-24T23:31:35.447Z,3.41
2023-11-24T23:34:02.699Z,3.42
2023-11-24T23:36:29.721Z,3.45
2023-11-24T23:38:56.629Z,3.48
2023-11-24T23:41:23.701Z,3.55
2023-11-24T23:43:50.670Z,3.48
2023-11-24T23:46:17.710Z,3.55
2023-11-24T23:48:44.566Z,3.60
2023-11-24T23:51:12.378Z,3.64
2023-11-24T23:53:40.850Z,3.62
2023-11-24T23:56:08.370Z,3.57
2023-11-24T23:58:37.450Z,3.67
